Stark, Kansas
Current Conditions -  °F | °C
As of 10:52 PM on Wednesday 22 Oct 2014 (Local Time) from KCNU Reporting Station
Broken Clouds Broken Clouds  
Wind Chill: 63°   Ceiling: 5000
Heat Index: 63°   Visibility: 10mi
Dew Point: 59°   Wind: 8mph
Humidity: 87%   Direction: 130°SE
Pressure: 30.12"   Gusts: NA
Location:  37.69°N, 95.14°W
Report Text: KCNU 230352Z AUTO 13007KT 10SM BKN050 17/15 A3012 RMK AO2 SLP192 T01720150
Loading
Personal Weather Stations






























Interactive Weather Map
Tropical Storm Tracking
New forecast layout! Learn more

10-Day Weather Forecast

Advertisements
Track Severe Weather on mobile